Weather observations for the past three days for
Toronto Pearson International Airport
Metric (Imperial)
Date Time (edt) Wind (kph) Vis. (km) Weather Sky Cond. Temperature (ºC) Relative Humidity Wind Chill (°C) Heat Index (°C) Pressure Precipitation (cm)
Air Dwpt 6 hour altimeter (cm) sea level (mb) 1 hr 3 hr 6 hr
Max. Min.
07 16:00 W 19 G 37 24.14 Showers in Vicinity SCT045 BKN058 BKN100 12 -1 41% 75.74 1010.2
07 15:00 W 15 G 30 24.14 Showers in Vicinity SCT050 BKN062 BKN080 11 -1 44% 75.77 1010.8
07 14:00 W 24 24.14 Showers in Vicinity SCT050 BKN090 11 -1 44% 75.77 1010.9
07 13:00 SE 15 24.14 Showers in Vicinity BKN050 BKN080 9 2 62% 7 75.82 1011.3
07 12:00 S 13 24.14 Mostly Cloudy BKN048 BKN090 10 2 58% 8 75.84 1011.6
07 11:00 W 17 24.14 Mostly Cloudy BKN038 BKN095 10 1 54% 8 75.87 1012.1
07 10:00 Vrbl 6 24.14 A Few Clouds FEW030 FEW100 8 2 66% 75.9 1012.5
07 09:00 NW 9 24.14 A Few Clouds FEW020 FEW100 FEW260 7 2 71% 5 75.95 1013.0
07 08:00 Calm 24.14 A Few Clouds FEW100 FEW260 5 1 76% 75.92 1012.9
07 07:00 W 7 24.14 Partly Cloudy FEW034 SCT100 SCT260 4 1 81% 2 75.92 1012.9
07 06:00 NW 13 24.14 Mostly Cloudy BKN075 BKN110 4 1 81% 1 75.9 1012.6
07 05:00 NW 24 24.14 Light Rain BKN045 OVC070 4 1 81% -0 75.92 1012.7
07 04:00 NW 22 24.14 Mostly Cloudy BKN059 BKN080 5 -1 66% 1 75.92 1012.8
07 03:00 NW 11 24.14 Overcast BKN061 OVC080 5 -3 57% 3 75.92 1012.9
07 02:00 N 6 24.14 Overcast BKN061 OVC084 5 -4 53% 75.92 1013.0
07 01:00 N 6 24.14 Mostly Cloudy BKN065 BKN150 5 -3 57% 75.95 1013.3
07 00:00 N 6 24.14 Mostly Cloudy FEW065 BKN150 4 -3 61% 75.97 1013.5
06 23:00 N 13 24.14 A Few Clouds FEW070 FEW170 5 -3 57% 2 75.97 1013.4
06 22:00 N 9 24.14 A Few Clouds FEW190 5 -2 61% 3 75.95 1013.3
06 21:00 W 9 24.14 Mostly Cloudy BKN190 7 -5 43% 5 75.92 1012.8
06 20:00 W 20 24.14 Mostly Cloudy FEW064 BKN210 8 -4 43% 5 75.9 1012.3
06 19:00 N 11 24.14 Mostly Cloudy BKN049 BKN070 9 -1 50% 8 75.84 1011.9
06 18:00 N 9 24.14 Mostly Cloudy SCT063 SCT150 BKN260 9 0 54% 8 75.79 1011.2
06 17:00 N 13 24.14 Mostly Cloudy FEW062 BKN150 BKN260 8 1 62% 6 75.77 1010.8
06 16:00 N 17 24.14 Mostly Cloudy FEW030 BKN050 BKN260 7 1 66% 4 75.79 1011.0
06 15:00 N 15 G 28 24.14 Mostly Cloudy BKN030 6 3 81% 3 75.79 1011.1
06 14:00 N 24 G 41 19.31 Light Rain FEW009 OVC020 5 3 87% 1 75.77 1010.9
06 13:00 N 20 16.09 Light Drizzle OVC007 6 5 93% 3 75.77 1010.7
06 12:00 E 7 9.66 Light Drizzle Fog/Mist BKN008 OVC013 8 6 87% 7 75.74 1010.3
06 11:00 SE 13 19.31 Overcast FEW008 OVC015 7 6 93% 5 75.69 1009.6
06 10:00 E 7 19.31 Overcast FEW008 OVC012 7 6 93% 6 75.69 1009.6
06 09:00 E 9 12.87 Light Rain SCT008 OVC015 7 5 87% 5 75.69 1009.5
06 08:00 E 11 9.66 Light Drizzle Fog/Mist SCT007 BKN014 OVC035 6 6 100% 4 75.64 1008.9
06 07:00 E 17 9.66 Light Drizzle Fog/Mist BKN004 OVC034 6 6 100% 3 75.59 1008.4
06 06:00 SE 11 9.66 Light Rain Fog/Mist SCT005 OVC040 6 6 100% 4 75.59 1008.2
06 05:00 SE 7 12.87 Light Rain SCT005 OVC032 7 6 93% 6 75.62 1008.6
06 04:00 SE 11 16.09 Mostly Cloudy FEW007 BKN050 BKN080 7 6 93% 5 75.62 1008.8
06 03:00 SE 17 12.87 Light Rain FEW022 OVC062 7 7 100% 4 75.59 1008.3
06 02:00 SE 19 12.87 Rain OVC044 8 7 93% 5 75.62 1008.4
06 01:00 SE 9 24.14 Light Rain BKN052 OVC090 9 7 87% 8 75.67 1009.2
06 00:00 SE 6 24.14 Overcast BKN100 OVC130 9 7 87% 75.64 1008.9
05 23:00 SE 6 24.14 Mostly Cloudy FEW040 BKN100 9 6 82% 75.64 1008.7
05 22:00 SE 9 24.14 Mostly Cloudy BKN078 BKN120 10 4 67% 9 75.64 1008.8
05 21:00 Vrbl 6 24.14 Mostly Cloudy SCT085 BKN120 11 2 54% 75.59 1008.2
05 20:00 NW 7 24.14 Mostly Cloudy BKN080 BKN220 11 2 54% 75.57 1007.8
05 19:00 NW 13 24.14 Mostly Cloudy SCT058 BKN081 BKN160 10 3 62% 8 75.54 1007.4
05 18:00 W 17 24.14 Mostly Cloudy FEW015 BKN058 10 5 71% 8 75.57 1007.8
05 17:00 W 17 24.14 Mostly Cloudy FEW015 BKN055 11 6 72% 75.54 1007.4
05 16:00 NW 26 24.14 Light Rain FEW015 FEW045 BKN059 11 6 72% 75.49 1006.9
05 15:00 W 22 G 35 24.14 Light Rain FEW025 FEW040 BKN053 OVC093 14 4 51% 75.41 1005.7
05 14:00 W 31 G 44 24.14 Overcast FEW052 BKN084 OVC260 15 4 48% 75.39 1005.2
05 13:00 W 26 24.14 Overcast FEW015 FEW043 FEW097 OVC260 16 7 55% 75.29 1004.0
05 12:00 W 28 24.14 Overcast FEW015 FEW055 OVC089 15 8 63% 75.31 1004.1
05 11:00 W 31 20.92 Mostly Cloudy SCT037 BKN070 15 10 72% 75.21 1003.0
05 10:00 W 31 24.14 Mostly Cloudy BKN028 BKN040 16 11 72% 75.11 1001.6
05 09:00 W 28 24.14 Mostly Cloudy FEW015 BKN028 BKN230 16 11 72% 75.08 1001.1
05 08:00 SW 19 G 31 24.14 Mostly Cloudy FEW086 BKN240 16 11 72% 74.98 999.9
05 07:00 SW 17 24.14 Mostly Cloudy FEW092 BKN130 BKN200 16 10 68% 74.96 999.4
05 06:00 S 20 G 31 24.14 Mostly Cloudy SCT080 BKN140 BKN230 16 10 68% 74.9 998.7
05 05:00 SW 20 G 30 24.14 Mostly Cloudy BKN088 17 10 64% 74.88 998.4
05 04:00 SW 19 G 30 24.14 Mostly Cloudy FEW080 BKN110 BKN250 17 10 64% 74.9 998.8
05 03:00 SW 20 24.14 Mostly Cloudy FEW070 SCT180 BKN250 17 10 64% 74.9 998.7
05 02:00 SW 30 G 43 24.14 Mostly Cloudy FEW065 BKN250 17 10 64% 74.96 999.3
05 01:00 SW 20 G 33 24.14 Partly Cloudy FEW090 SCT130 18 10 60% 74.96 999.4
05 00:00 SW 24 G 33 24.14 Mostly Cloudy FEW062 BKN170 18 10 60% 74.96 999.3
04 23:00 S 19 G 31 24.14 Partly Cloudy FEW064 SCT095 SCT250 18 7 49% 75.01 1000.0
04 22:00 S 15 24.14 Partly Cloudy FEW060 SCT250 19 4 37% 75.03 1000.5
04 21:00 S 17 G 31 24.14 Partly Cloudy FEW210 SCT260 20 4 35% 75.01 1000.2
04 20:00 SW 26 G 44 24.14 Mostly Cloudy FEW200 BKN260 20 3 33% 75.03 1000.6
04 19:00 SW 31 G 50 24.14 Mostly Cloudy FEW210 BKN260 21 4 33% 75.06 1001.0
04 18:00 SW 43 G 54 24.14 Mostly Cloudy and Windy FEW210 BKN230 22 4 31% 75.08 1001.3
04 17:00 SW 39 G 54 24.14 Mostly Cloudy and Breezy FEW015 BKN260 23 5 31% 75.06 1000.7
Date Time (edt) Wind (kph) Vis. (km) Weather Sky Cond. Air Dwpt Max. Min. Relative Humidity Wind Chill (°C) Heat Index (°C) altimeter (cm) sea level (mb) 1 hr 3 hr 6 hr
6 hour
Temperature (ºC) Pressure Precipitation (cm)